Tasman Sea — WDB5559 — position and weather

sailwx.info

Track history (hours):
 
Tides and Currents Weather Stations Pressure Air Temp Water Temp Dewpoint Dewpoint Depression Visibility Wind Speed Wind Dir Waves Ship Positions

Tasman Sea

Owner: Kirby Offshore Marine, LLC, Staten Island, NY. More information available from US FCC via Universal Licensing System and Coast Guard Vessel Documentation Center.

Last reported at 2017-Nov-19 11:47 UTC. Time now 2017-Nov-19 12:19 UTC.
Position N 41°02' W 072°37'.

Length 134 m; draft 6.7 m.

Type: . MMSI: 366910960.

Date/timePositionNaut miles runAvg speedWind from/ knotsBaromVisibWave heightAir tempDewpointWater temp
2017-Nov-19 11:47N 41°02' W 072°37'0 0.0
2017-Nov-19 11:17N 41°02' W 072°37'0 0.1
2017-Nov-19 10:41N 41°02' W 072°37'0 0.1
2017-Nov-19 10:23N 41°02' W 072°37'0 0.0
2017-Nov-19 09:59N 41°02' W 072°37'0 0.0
2017-Nov-19 09:29N 41°02' W 072°37'0 0.0
2017-Nov-19 08:53N 41°02' W 072°37'0 0.0
2017-Nov-19 08:29N 41°02' W 072°37'0 0.0
2017-Nov-19 07:53N 41°02' W 072°37'0 0.0
2017-Nov-19 05:23N 41°02' W 072°37'0 0.0
2017-Nov-19 04:59N 41°02' W 072°37'47 3.8
2017-Nov-18 16:36N 40°55' W 073°38'2 6.6
2017-Nov-18 16:16N 40°54' W 073°41'2 6.6
2017-Nov-18 16:00N 40°53' W 073°43'3 6.5
2017-Nov-18 15:30N 40°51' W 073°46'3 5.7
2017-Nov-18 15:00N 40°48' W 073°48'3 6.2
2017-Nov-18 14:30N 40°48' W 073°52'3 6.1
2017-Nov-18 14:00N 40°47' W 073°55'3 6.4
2017-Nov-18 13:30N 40°45' W 073°58'2 4.4
2017-Nov-18 13:00N 40°42' W 073°59'3 5.1
2017-Nov-18 12:30N 40°41' W 074°02'0 0.8
2017-Nov-18 11:58N 40°40' W 074°02'0 0.0
2017-Nov-18 11:28N 40°40' W 074°02'0 0.0
2017-Nov-18 10:58N 40°40' W 074°02'0 0.0
2017-Nov-18 10:28N 40°40' W 074°02'0 0.3
2017-Nov-18 09:58N 40°40' W 074°02'0 0.1
2017-Nov-18 09:28N 40°40' W 074°02'0 0.2
2017-Nov-18 09:00N 40°40' W 074°02'0 0.7
2017-Nov-18 08:30N 40°40' W 074°02'3 5.1
2017-Nov-18 08:00N 40°37' W 074°03'3 5.8
2017-Nov-18 07:30N 40°35' W 074°02'3 5.6
2017-Nov-18 07:00N 40°32' W 074°01'3 5.9
2017-Nov-18 06:30N 40°30' W 073°58'3 5.9
2017-Nov-18 06:00N 40°29' W 073°54'38 6.4
2017-Nov-18 00:03N 39°51' W 073°58'3 6.6
2017-Nov-17 23:37N 39°48' W 073°58'1 6.6
2017-Nov-17 23:29N 39°47' W 073°58'4 6.6
2017-Nov-17 22:51N 39°43' W 073°60'4 6.8
2017-Nov-17 22:18N 39°40' W 074°02'2 6.8
2017-Nov-17 21:59N 39°38' W 074°03'64 5.1
2017-Nov-17 09:24N 38°59' W 075°08'2 5.5
2017-Nov-17 09:00N 39°01' W 075°09'3 5.9
2017-Nov-17 08:30N 39°03' W 075°10'3 7.0
2017-Nov-17 08:00N 39°06' W 075°12'4 7.5
2017-Nov-17 07:30N 39°09' W 075°15'4 8.1
2017-Nov-17 07:00N 39°13' W 075°18'4 8.6
2017-Nov-17 06:30N 39°16' W 075°21'4 8.7
2017-Nov-17 06:00N 39°20' W 075°25'4 8.3
2017-Nov-17 05:30N 39°23' W 075°28'4 7.7
2017-Nov-17 05:00N 39°26' W 075°32'3 6.9
2017-Nov-17 04:30N 39°29' W 075°34'3 6.7
2017-Nov-17 04:00N 39°32' W 075°33'3 5.4
2017-Nov-17 03:30N 39°35' W 075°34'1 2.2
2017-Nov-17 02:59N 39°35' W 075°36'0 0.0
2017-Nov-17 02:29N 39°35' W 075°36'0 0.1
2017-Nov-17 01:59N 39°35' W 075°36'0 0.0
2017-Nov-17 01:29N 39°35' W 075°36'0 0.0
2017-Nov-17 00:59N 39°35' W 075°36'0 0.0
2017-Nov-17 00:29N 39°35' W 075°36'0 0.0
2017-Nov-16 23:59N 39°35' W 075°36'0 0.0
2017-Nov-16 23:29N 39°35' W 075°36'0 0.0
2017-Nov-16 22:59N 39°35' W 075°36'0 0.0
2017-Nov-16 22:29N 39°35' W 075°36'0 0.0
2017-Nov-16 21:59N 39°35' W 075°36'0 0.0
2017-Nov-16 21:29N 39°35' W 075°36'0 0.0
2017-Nov-16 20:59N 39°35' W 075°36'0 0.0
2017-Nov-16 20:29N 39°35' W 075°36'0 0.0
2017-Nov-16 19:59N 39°35' W 075°36'0 0.0
2017-Nov-16 19:29N 39°35' W 075°36'0 0.0
2017-Nov-16 18:59N 39°35' W 075°36'0 0.0
2017-Nov-16 18:29N 39°35' W 075°36'0 0.0
2017-Nov-16 17:59N 39°35' W 075°36'0 0.0
2017-Nov-16 17:29N 39°35' W 075°36'0 0.0
2017-Nov-16 16:59N 39°35' W 075°36'0 0.0
2017-Nov-16 16:29N 39°35' W 075°36'0 0.0
2017-Nov-16 15:59N 39°35' W 075°36'0 0.0
2017-Nov-16 15:29N 39°35' W 075°36'0 0.0
2017-Nov-16 14:59N 39°35' W 075°36'0 0.0
2017-Nov-16 14:29N 39°35' W 075°36'0 0.0
2017-Nov-16 13:59N 39°35' W 075°36'0 0.0
2017-Nov-16 13:29N 39°35' W 075°36'0 0.0
2017-Nov-16 12:59N 39°35' W 075°36'0 0.0
2017-Nov-16 12:29N 39°35' W 075°36'0 0.0
2017-Nov-16 11:59N 39°35' W 075°36'0 0.0
2017-Nov-16 11:29N 39°35' W 075°36'0 0.0
2017-Nov-16 10:59N 39°35' W 075°36'0 0.0
2017-Nov-16 10:29N 39°35' W 075°36'0 0.0
2017-Nov-16 09:59N 39°35' W 075°36'0 0.0
2017-Nov-16 09:29N 39°35' W 075°36'0 0.0
2017-Nov-16 08:59N 39°35' W 075°36'0 0.0
2017-Nov-16 08:29N 39°35' W 075°36'0 0.0
2017-Nov-16 07:59N 39°35' W 075°36'0 0.0
2017-Nov-16 07:29N 39°35' W 075°36'0 0.0
2017-Nov-16 06:59N 39°35' W 075°36'0 0.0
2017-Nov-16 06:29N 39°35' W 075°36'0 0.0
2017-Nov-16 05:59N 39°35' W 075°36'0 0.0
2017-Nov-16 05:29N 39°35' W 075°36'0 0.0
2017-Nov-16 04:59N 39°35' W 075°36'0 0.0
2017-Nov-16 04:29N 39°35' W 075°36'0 0.0
2017-Nov-16 03:59N 39°35' W 075°36'0 0.0
2017-Nov-16 03:29N 39°35' W 075°36'0 0.0
2017-Nov-16 02:59N 39°35' W 075°36'0 0.0
2017-Nov-16 02:29N 39°35' W 075°36'0 0.0
2017-Nov-16 01:59N 39°35' W 075°36'0 0.0
2017-Nov-16 01:26N 39°35' W 075°36'0 0.0
2017-Nov-16 00:59N 39°35' W 075°36'0 0.0
2017-Nov-16 00:29N 39°35' W 075°36'0 0.1
2017-Nov-15 23:59N 39°35' W 075°36'0 0.0
2017-Nov-15 23:30N 39°35' W 075°36'0 0.1
2017-Nov-15 23:00N 39°35' W 075°35'2 4.9
2017-Nov-15 22:30N 39°34' W 075°33'4 7.1
2017-Nov-15 22:00N 39°30' W 075°33'4 7.3
2017-Nov-15 21:30N 39°27' W 075°33'4 7.3
2017-Nov-15 21:00N 39°24' W 075°29'3 6.9
2017-Nov-15 20:30N 39°21' W 075°26'3 6.6
2017-Nov-15 20:00N 39°19' W 075°24'3 6.4
2017-Nov-15 19:30N 39°16' W 075°21'3 6.6
2017-Nov-15 19:00N 39°14' W 075°18'3 6.4
2017-Nov-15 18:30N 39°11' W 075°16'3 6.8
2017-Nov-15 18:00N 39°08' W 075°14'4 7.1
2017-Nov-15 17:30N 39°05' W 075°11'4 6.9
2017-Nov-15 16:53N 39°01' W 075°09'17 5.6
2017-Nov-15 13:53N 38°49' W 074°55'9 7.8
2017-Nov-15 12:41N 38°55' W 074°46'4 8.4
2017-Nov-15 12:15N 38°58' W 074°43'3 8.4
2017-Nov-15 11:51N 38°60' W 074°40'38 8.4
2017-Nov-15 07:20N 39°29' W 074°09'3 8.4
2017-Nov-15 07:00N 39°32' W 074°08'5 8.4
2017-Nov-15 06:27N 39°36' W 074°05'4 8.5
2017-Nov-15 06:00N 39°39' W 074°03'5 8.5
2017-Nov-15 05:26N 39°44' W 073°60'4 8.2
2017-Nov-15 04:58N 39°47' W 073°58'34 8.5
2017-Nov-15 00:53N 40°22' W 073°54'4 8.7
2017-Nov-15 00:29N 40°25' W 073°54'4 7.8
2017-Nov-14 23:57N 40°29' W 073°55'4 8.7
2017-Nov-14 23:30N 40°31' W 073°60'4 7.4
2017-Nov-14 23:00N 40°34' W 074°02'4 7.5
2017-Nov-14 22:30N 40°38' W 074°03'3 5.9
2017-Nov-14 22:00N 40°39' W 074°07'0 0.1
2017-Nov-14 21:30N 40°39' W 074°07'0 0.1
2017-Nov-14 20:59N 40°39' W 074°07'0 0.0
2017-Nov-14 20:29N 40°39' W 074°07'0 0.0
2017-Nov-14 19:59N 40°39' W 074°07'0 0.0
2017-Nov-14 19:29N 40°39' W 074°07'0 0.0
2017-Nov-14 18:59N 40°39' W 074°07'0 0.0
2017-Nov-14 18:29N 40°39' W 074°07'0 0.0
2017-Nov-14 17:59N 40°39' W 074°07'0 0.0
2017-Nov-14 17:29N 40°39' W 074°07'0 0.0
2017-Nov-14 16:59N 40°39' W 074°07'0 0.0
2017-Nov-14 16:29N 40°39' W 074°07'0 0.0
2017-Nov-14 15:59N 40°39' W 074°07'0 0.0
2017-Nov-14 15:29N 40°39' W 074°07'0 0.0
2017-Nov-14 14:59N 40°39' W 074°07'0 0.0
2017-Nov-14 14:29N 40°39' W 074°07'0 0.0
2017-Nov-14 13:59N 40°39' W 074°07'0 0.0
2017-Nov-14 13:29N 40°39' W 074°07'0 0.0
2017-Nov-14 12:59N 40°39' W 074°07'0 0.0
2017-Nov-14 12:29N 40°39' W 074°07'0 0.0
2017-Nov-14 11:59N 40°39' W 074°07'0 0.0
2017-Nov-14 11:29N 40°39' W 074°07'0 0.0
2017-Nov-14 10:59N 40°39' W 074°07'0 0.1
2017-Nov-14 10:29N 40°39' W 074°07'0 0.0
2017-Nov-14 09:59N 40°39' W 074°07'0 0.0
2017-Nov-14 09:29N 40°39' W 074°07'0 0.0
2017-Nov-14 08:59N 40°39' W 074°07'0 0.0
2017-Nov-14 08:29N 40°39' W 074°07'0 0.0
2017-Nov-14 07:59N 40°39' W 074°07'0 0.0
2017-Nov-14 07:29N 40°39' W 074°07'0 0.0
2017-Nov-14 06:59N 40°39' W 074°07'0 0.0
2017-Nov-14 06:29N 40°39' W 074°07'0 0.0
2017-Nov-14 05:59N 40°39' W 074°07'0 0.0
2017-Nov-14 05:29N 40°39' W 074°07'0 0.0
2017-Nov-14 04:59N 40°39' W 074°07'0 0.0
2017-Nov-14 04:29N 40°39' W 074°07'0 0.0
2017-Nov-14 03:59N 40°39' W 074°07'0 0.0
2017-Nov-14 03:29N 40°39' W 074°07'0 0.0
2017-Nov-14 02:59N 40°39' W 074°07'0 0.0
2017-Nov-14 02:29N 40°39' W 074°07'0 0.0
2017-Nov-14 01:59N 40°39' W 074°07'0 0.0
2017-Nov-14 01:29N 40°39' W 074°07'0 0.0
2017-Nov-14 00:59N 40°39' W 074°07'0 0.0
2017-Nov-14 00:29N 40°39' W 074°07'0 0.0
2017-Nov-13 23:53N 40°39' W 074°07'0 0.0
2017-Nov-13 23:29N 40°39' W 074°07'0 0.0
2017-Nov-13 22:59N 40°39' W 074°07'0 0.0
2017-Nov-13 22:29N 40°39' W 074°07'0 0.0
2017-Nov-13 22:00N 40°39' W 074°07'2 0.1
2017-Nov-13 01:50N 40°38' W 074°10'0 0.0
2017-Nov-13 01:26N 40°38' W 074°10'0 0.0
2017-Nov-13 00:59N 40°38' W 074°10'0 0.0
2017-Nov-13 00:29N 40°38' W 074°10'0 0.0
2017-Nov-12 23:56N 40°38' W 074°10'0 0.0
2017-Nov-12 23:29N 40°38' W 074°10'2 3.2
2017-Nov-12 23:01N 40°39' W 074°08'1 1.4
2017-Nov-12 22:31N 40°39' W 074°07'0 0.0
2017-Nov-12 22:00N 40°39' W 074°07'0 0.0
2017-Nov-12 21:31N 40°39' W 074°07'0 0.0
2017-Nov-12 21:01N 40°39' W 074°07'0 0.0
2017-Nov-12 20:30N 40°39' W 074°07'0 0.0
2017-Nov-12 20:00N 40°39' W 074°07'1 1.5
2017-Nov-12 19:30N 40°39' W 074°08'1 2.5
2017-Nov-12 19:01N 40°38' W 074°09'0 0.0
2017-Nov-12 18:28N 40°38' W 074°09'0 0.0
2017-Nov-12 17:55N 40°38' W 074°09'0 0.0
2017-Nov-12 17:28N 40°38' W 074°09'0 0.0
2017-Nov-12 16:55N 40°38' W 074°09'0 0.0
2017-Nov-12 16:28N 40°38' W 074°09'0 0.0
2017-Nov-12 15:58N 40°38' W 074°09'0 0.0
2017-Nov-12 15:25N 40°38' W 074°09'0 0.0
2017-Nov-12 14:58N 40°38' W 074°09'0 0.0
2017-Nov-12 14:28N 40°38' W 074°09'0 0.0
2017-Nov-12 13:58N 40°38' W 074°09'0 0.0
2017-Nov-12 13:28N 40°38' W 074°09'0 0.0
2017-Nov-12 12:58N 40°38' W 074°09'0 0.0
2017-Nov-12 12:22N 40°38' W 074°09'0 0.0
2017-Nov-12 11:55N 40°38' W 074°09'0 0.0
2017-Nov-12 11:28N 40°38' W 074°09'0 0.0
2017-Nov-12 10:58N 40°38' W 074°09'0 0.0
2017-Nov-12 10:28N 40°38' W 074°09'0 0.0
2017-Nov-12 09:58N 40°38' W 074°09'0 0.0
2017-Nov-12 09:28N 40°38' W 074°09'0 0.0
2017-Nov-12 08:58N 40°38' W 074°09'0 0.0
2017-Nov-12 08:25N 40°38' W 074°09'0 0.0
2017-Nov-12 07:58N 40°38' W 074°09'0 0.0
2017-Nov-12 07:28N 40°38' W 074°09'0 0.0
2017-Nov-12 06:58N 40°38' W 074°09'0 0.0
2017-Nov-12 06:28N 40°38' W 074°09'0 0.0
2017-Nov-12 06:00N 40°38' W 074°09'0 0.0
2017-Nov-12 05:30N 40°38' W 074°09'0 0.0
2017-Nov-12 05:00N 40°38' W 074°09'2 3.4
2017-Nov-12 04:30N 40°39' W 074°07'1 1.1
2017-Nov-12 03:56N 40°39' W 074°07'0 0.0
2017-Nov-12 03:29N 40°39' W 074°07'0 0.0
2017-Nov-12 02:59N 40°39' W 074°07'0 0.0
2017-Nov-12 02:29N 40°39' W 074°07'0 0.0
2017-Nov-12 02:00N 40°39' W 074°07'0 0.0
2017-Nov-12 01:30N 40°39' W 074°07'0 0.0
2017-Nov-12 01:00N 40°39' W 074°07'0 0.0
2017-Nov-12 00:29N 40°39' W 074°07'0 0.0
2017-Nov-12 00:00N 40°39' W 074°07'0 0.0
2017-Nov-11 23:30N 40°39' W 074°07'1 1.6
2017-Nov-11 23:00N 40°39' W 074°08'1 2.9
2017-Nov-11 22:30N 40°38' W 074°09'0 0.7
2017-Nov-11 22:00N 40°38' W 074°10'0 0.0
2017-Nov-11 21:30N 40°38' W 074°10'0 0.0
2017-Nov-11 21:00N 40°38' W 074°10'0 0.0
2017-Nov-11 20:30N 40°38' W 074°10'0 0.0
2017-Nov-11 19:59N 40°38' W 074°10'0 0.0
2017-Nov-11 19:30N 40°38' W 074°10'0 0.0
2017-Nov-11 19:00N 40°38' W 074°10'0 0.0
2017-Nov-11 18:30N 40°38' W 074°10'0 0.0
2017-Nov-11 18:00N 40°38' W 074°10'0 0.0
2017-Nov-11 17:30N 40°38' W 074°10'0 0.0
2017-Nov-11 17:00N 40°38' W 074°10'0 0.0
2017-Nov-11 16:30N 40°38' W 074°10'0 0.0
2017-Nov-11 16:00N 40°38' W 074°10'0 0.0
2017-Nov-11 15:30N 40°38' W 074°10'0 0.0
2017-Nov-11 15:00N 40°38' W 074°10'0 0.0
2017-Nov-11 14:30N 40°38' W 074°10'0 0.0
2017-Nov-11 14:00N 40°38' W 074°10'0 0.6
2017-Nov-11 13:30N 40°38' W 074°09'0 0.0
2017-Nov-11 13:00N 40°38' W 074°09'0 0.0
2017-Nov-11 12:28N 40°38' W 074°09'0 0.0
2017-Nov-11 12:00N 40°38' W 074°10'0 0.0
2017-Nov-11 11:29N 40°38' W 074°09'0 0.0
2017-Nov-11 11:00N 40°38' W 074°09'0 0.0
2017-Nov-11 10:30N 40°38' W 074°09'0 0.0
2017-Nov-11 10:00N 40°38' W 074°09'0 0.0
2017-Nov-11 09:30N 40°38' W 074°09'0 0.0
2017-Nov-11 09:00N 40°38' W 074°09'0 0.0
2017-Nov-11 08:30N 40°38' W 074°09'0 0.0
2017-Nov-11 08:00N 40°38' W 074°09'0 0.0
2017-Nov-11 07:29N 40°38' W 074°09'0 0.0
2017-Nov-11 07:00N 40°38' W 074°09'0 0.0
2017-Nov-11 06:30N 40°38' W 074°09'0 0.3
2017-Nov-11 06:00N 40°38' W 074°09'3 6.3
2017-Nov-11 05:30N 40°39' W 074°05'2 4.6
2017-Nov-11 05:00N 40°40' W 074°03'3 6.3
2017-Nov-11 04:30N 40°43' W 074°01'4 7.5
2017-Nov-11 04:01N 40°47' W 073°60'0 0.1
2017-Nov-11 03:29N 40°47' W 073°60'0 0.0
2017-Nov-11 02:59N 40°47' W 073°60'0 0.0
2017-Nov-11 02:29N 40°47' W 073°60'0 0.0
2017-Nov-11 01:59N 40°47' W 073°60'0 0.0
2017-Nov-11 01:29N 40°47' W 073°60'0 0.0
2017-Nov-11 00:59N 40°47' W 073°60'0 0.3
2017-Nov-11 00:29N 40°47' W 073°60'0 0.0
2017-Nov-10 23:59N 40°47' W 073°60'0 0.0
2017-Nov-10 23:29N 40°47' W 073°60'0 0.0
2017-Nov-10 22:59N 40°47' W 073°60'0 0.0
2017-Nov-10 22:29N 40°47' W 073°60'0 0.0
2017-Nov-10 21:59N 40°47' W 073°60'0 0.0
2017-Nov-10 21:29N 40°47' W 073°60'0 0.0
2017-Nov-10 20:59N 40°47' W 073°60'0 0.3
2017-Nov-10 20:29N 40°47' W 073°60'0 0.2
2017-Nov-10 19:59N 40°47' W 073°60'0 0.0
2017-Nov-10 19:29N 40°47' W 073°60'0 0.1
2017-Nov-10 18:59N 40°47' W 073°60'0 0.1
2017-Nov-10 18:20N 40°47' W 073°60'0 0.1
2017-Nov-10 17:59N 40°47' W 073°60'0 0.2
2017-Nov-10 17:29N 40°47' W 073°60'0 0.1
2017-Nov-10 16:59N 40°47' W 073°60'0 0.1
2017-Nov-10 16:31N 40°47' W 073°60'0 0.0
2017-Nov-10 16:00N 40°47' W 073°60'0 0.0
2017-Nov-10 15:31N 40°47' W 073°60'0 0.2
2017-Nov-10 15:00N 40°47' W 073°60'3 5.6
2017-Nov-10 14:31N 40°44' W 074°01'3 5.1
2017-Nov-10 14:01N 40°42' W 074°01'4 7.2
2017-Nov-10 13:30N 40°45' W 073°58'4 7.8
2017-Nov-10 13:00N 40°48' W 073°55'3 5.3
2017-Nov-10 12:30N 40°48' W 073°51'3 4.5
2017-Nov-10 11:50N 40°48' W 073°47'2 4.7
2017-Nov-10 11:30N 40°50' W 073°47'2 4.6
2017-Nov-10 11:00N 40°52' W 073°45'  
Track history (hours):
 
Tides and Currents Weather Stations Pressure Air Temp Water Temp Dewpoint Dewpoint Depression Visibility Wind Speed Wind Dir Waves Ship Positions

Tasman Sea

Owner: Kirby Offshore Marine, LLC, Staten Island, NY. More information available from US FCC via Universal Licensing System and Coast Guard Vessel Documentation Center.

Last reported at 2017-Nov-19 11:47 UTC. Time now 2017-Nov-19 12:19 UTC.
Position N 41°02' W 072°37'.

Length 134 m; draft 6.7 m.

Type: . MMSI: 366910960.

Date/timePositionNaut miles runAvg speedWind from/ knotsBaromVisibWave heightAir tempDewpointWater temp
2017-Nov-19 11:47N 41°02' W 072°37'0 0.0
2017-Nov-19 11:17N 41°02' W 072°37'0 0.1
2017-Nov-19 10:41N 41°02' W 072°37'0 0.1
2017-Nov-19 10:23N 41°02' W 072°37'0 0.0
2017-Nov-19 09:59N 41°02' W 072°37'0 0.0
2017-Nov-19 09:29N 41°02' W 072°37'0 0.0
2017-Nov-19 08:53N 41°02' W 072°37'0 0.0
2017-Nov-19 08:29N 41°02' W 072°37'0 0.0
2017-Nov-19 07:53N 41°02' W 072°37'0 0.0
2017-Nov-19 05:23N 41°02' W 072°37'0 0.0
2017-Nov-19 04:59N 41°02' W 072°37'47 3.8
2017-Nov-18 16:36N 40°55' W 073°38'2 6.6
2017-Nov-18 16:16N 40°54' W 073°41'2 6.6
2017-Nov-18 16:00N 40°53' W 073°43'3 6.5
2017-Nov-18 15:30N 40°51' W 073°46'3 5.7
2017-Nov-18 15:00N 40°48' W 073°48'3 6.2
2017-Nov-18 14:30N 40°48' W 073°52'3 6.1
2017-Nov-18 14:00N 40°47' W 073°55'3 6.4
2017-Nov-18 13:30N 40°45' W 073°58'2 4.4
2017-Nov-18 13:00N 40°42' W 073°59'3 5.1
2017-Nov-18 12:30N 40°41' W 074°02'0 0.8
2017-Nov-18 11:58N 40°40' W 074°02'0 0.0
2017-Nov-18 11:28N 40°40' W 074°02'0 0.0
2017-Nov-18 10:58N 40°40' W 074°02'0 0.0
2017-Nov-18 10:28N 40°40' W 074°02'0 0.3
2017-Nov-18 09:58N 40°40' W 074°02'0 0.1
2017-Nov-18 09:28N 40°40' W 074°02'0 0.2
2017-Nov-18 09:00N 40°40' W 074°02'0 0.7
2017-Nov-18 08:30N 40°40' W 074°02'3 5.1
2017-Nov-18 08:00N 40°37' W 074°03'3 5.8
2017-Nov-18 07:30N 40°35' W 074°02'3 5.6
2017-Nov-18 07:00N 40°32' W 074°01'3 5.9
2017-Nov-18 06:30N 40°30' W 073°58'3 5.9
2017-Nov-18 06:00N 40°29' W 073°54'38 6.4
2017-Nov-18 00:03N 39°51' W 073°58'3 6.6
2017-Nov-17 23:37N 39°48' W 073°58'1 6.6
2017-Nov-17 23:29N 39°47' W 073°58'4 6.6
2017-Nov-17 22:51N 39°43' W 073°60'4 6.8
2017-Nov-17 22:18N 39°40' W 074°02'2 6.8
2017-Nov-17 21:59N 39°38' W 074°03'64 5.1
2017-Nov-17 09:24N 38°59' W 075°08'2 5.5
2017-Nov-17 09:00N 39°01' W 075°09'3 5.9
2017-Nov-17 08:30N 39°03' W 075°10'3 7.0
2017-Nov-17 08:00N 39°06' W 075°12'4 7.5
2017-Nov-17 07:30N 39°09' W 075°15'4 8.1
2017-Nov-17 07:00N 39°13' W 075°18'4 8.6
2017-Nov-17 06:30N 39°16' W 075°21'4 8.7
2017-Nov-17 06:00N 39°20' W 075°25'4 8.3
2017-Nov-17 05:30N 39°23' W 075°28'4 7.7
2017-Nov-17 05:00N 39°26' W 075°32'3 6.9
2017-Nov-17 04:30N 39°29' W 075°34'3 6.7
2017-Nov-17 04:00N 39°32' W 075°33'3 5.4
2017-Nov-17 03:30N 39°35' W 075°34'1 2.2
2017-Nov-17 02:59N 39°35' W 075°36'0 0.0
2017-Nov-17 02:29N 39°35' W 075°36'0 0.1
2017-Nov-17 01:59N 39°35' W 075°36'0 0.0
2017-Nov-17 01:29N 39°35' W 075°36'0 0.0
2017-Nov-17 00:59N 39°35' W 075°36'0 0.0
2017-Nov-17 00:29N 39°35' W 075°36'0 0.0
2017-Nov-16 23:59N 39°35' W 075°36'0 0.0
2017-Nov-16 23:29N 39°35' W 075°36'0 0.0
2017-Nov-16 22:59N 39°35' W 075°36'0 0.0
2017-Nov-16 22:29N 39°35' W 075°36'0 0.0
2017-Nov-16 21:59N 39°35' W 075°36'0 0.0
2017-Nov-16 21:29N 39°35' W 075°36'0 0.0
2017-Nov-16 20:59N 39°35' W 075°36'0 0.0
2017-Nov-16 20:29N 39°35' W 075°36'0 0.0
2017-Nov-16 19:59N 39°35' W 075°36'0 0.0
2017-Nov-16 19:29N 39°35' W 075°36'0 0.0
2017-Nov-16 18:59N 39°35' W 075°36'0 0.0
2017-Nov-16 18:29N 39°35' W 075°36'0 0.0
2017-Nov-16 17:59N 39°35' W 075°36'0 0.0
2017-Nov-16 17:29N 39°35' W 075°36'0 0.0
2017-Nov-16 16:59N 39°35' W 075°36'0 0.0
2017-Nov-16 16:29N 39°35' W 075°36'0 0.0
2017-Nov-16 15:59N 39°35' W 075°36'0 0.0
2017-Nov-16 15:29N 39°35' W 075°36'0 0.0
2017-Nov-16 14:59N 39°35' W 075°36'0 0.0
2017-Nov-16 14:29N 39°35' W 075°36'0 0.0
2017-Nov-16 13:59N 39°35' W 075°36'0 0.0
2017-Nov-16 13:29N 39°35' W 075°36'0 0.0
2017-Nov-16 12:59N 39°35' W 075°36'0 0.0
2017-Nov-16 12:29N 39°35' W 075°36'0 0.0
2017-Nov-16 11:59N 39°35' W 075°36'0 0.0
2017-Nov-16 11:29N 39°35' W 075°36'0 0.0
2017-Nov-16 10:59N 39°35' W 075°36'0 0.0
2017-Nov-16 10:29N 39°35' W 075°36'0 0.0
2017-Nov-16 09:59N 39°35' W 075°36'0 0.0
2017-Nov-16 09:29N 39°35' W 075°36'0 0.0
2017-Nov-16 08:59N 39°35' W 075°36'0 0.0
2017-Nov-16 08:29N 39°35' W 075°36'0 0.0
2017-Nov-16 07:59N 39°35' W 075°36'0 0.0
2017-Nov-16 07:29N 39°35' W 075°36'0 0.0
2017-Nov-16 06:59N 39°35' W 075°36'0 0.0
2017-Nov-16 06:29N 39°35' W 075°36'0 0.0
2017-Nov-16 05:59N 39°35' W 075°36'0 0.0
2017-Nov-16 05:29N 39°35' W 075°36'0 0.0
2017-Nov-16 04:59N 39°35' W 075°36'0 0.0
2017-Nov-16 04:29N 39°35' W 075°36'0 0.0
2017-Nov-16 03:59N 39°35' W 075°36'0 0.0
2017-Nov-16 03:29N 39°35' W 075°36'0 0.0
2017-Nov-16 02:59N 39°35' W 075°36'0 0.0
2017-Nov-16 02:29N 39°35' W 075°36'0 0.0
2017-Nov-16 01:59N 39°35' W 075°36'0 0.0
2017-Nov-16 01:26N 39°35' W 075°36'0 0.0
2017-Nov-16 00:59N 39°35' W 075°36'0 0.0
2017-Nov-16 00:29N 39°35' W 075°36'0 0.1
2017-Nov-15 23:59N 39°35' W 075°36'0 0.0
2017-Nov-15 23:30N 39°35' W 075°36'0 0.1
2017-Nov-15 23:00N 39°35' W 075°35'2 4.9
2017-Nov-15 22:30N 39°34' W 075°33'4 7.1
2017-Nov-15 22:00N 39°30' W 075°33'4 7.3
2017-Nov-15 21:30N 39°27' W 075°33'4 7.3
2017-Nov-15 21:00N 39°24' W 075°29'3 6.9
2017-Nov-15 20:30N 39°21' W 075°26'3 6.6
2017-Nov-15 20:00N 39°19' W 075°24'3 6.4
2017-Nov-15 19:30N 39°16' W 075°21'3 6.6
2017-Nov-15 19:00N 39°14' W 075°18'3 6.4
2017-Nov-15 18:30N 39°11' W 075°16'3 6.8
2017-Nov-15 18:00N 39°08' W 075°14'4 7.1
2017-Nov-15 17:30N 39°05' W 075°11'4 6.9
2017-Nov-15 16:53N 39°01' W 075°09'17 5.6
2017-Nov-15 13:53N 38°49' W 074°55'9 7.8
2017-Nov-15 12:41N 38°55' W 074°46'4 8.4
2017-Nov-15 12:15N 38°58' W 074°43'3 8.4
2017-Nov-15 11:51N 38°60' W 074°40'38 8.4
2017-Nov-15 07:20N 39°29' W 074°09'3 8.4
2017-Nov-15 07:00N 39°32' W 074°08'5 8.4
2017-Nov-15 06:27N 39°36' W 074°05'4 8.5
2017-Nov-15 06:00N 39°39' W 074°03'5 8.5
2017-Nov-15 05:26N 39°44' W 073°60'4 8.2
2017-Nov-15 04:58N 39°47' W 073°58'34 8.5
2017-Nov-15 00:53N 40°22' W 073°54'4 8.7
2017-Nov-15 00:29N 40°25' W 073°54'4 7.8
2017-Nov-14 23:57N 40°29' W 073°55'4 8.7
2017-Nov-14 23:30N 40°31' W 073°60'4 7.4
2017-Nov-14 23:00N 40°34' W 074°02'4 7.5
2017-Nov-14 22:30N 40°38' W 074°03'3 5.9
2017-Nov-14 22:00N 40°39' W 074°07'0 0.1
2017-Nov-14 21:30N 40°39' W 074°07'0 0.1
2017-Nov-14 20:59N 40°39' W 074°07'0 0.0
2017-Nov-14 20:29N 40°39' W 074°07'0 0.0
2017-Nov-14 19:59N 40°39' W 074°07'0 0.0
2017-Nov-14 19:29N 40°39' W 074°07'0 0.0
2017-Nov-14 18:59N 40°39' W 074°07'0 0.0
2017-Nov-14 18:29N 40°39' W 074°07'0 0.0
2017-Nov-14 17:59N 40°39' W 074°07'0 0.0
2017-Nov-14 17:29N 40°39' W 074°07'0 0.0
2017-Nov-14 16:59N 40°39' W 074°07'0 0.0
2017-Nov-14 16:29N 40°39' W 074°07'0 0.0
2017-Nov-14 15:59N 40°39' W 074°07'0 0.0
2017-Nov-14 15:29N 40°39' W 074°07'0 0.0
2017-Nov-14 14:59N 40°39' W 074°07'0 0.0
2017-Nov-14 14:29N 40°39' W 074°07'0 0.0
2017-Nov-14 13:59N 40°39' W 074°07'0 0.0
2017-Nov-14 13:29N 40°39' W 074°07'0 0.0
2017-Nov-14 12:59N 40°39' W 074°07'0 0.0
2017-Nov-14 12:29N 40°39' W 074°07'0 0.0
2017-Nov-14 11:59N 40°39' W 074°07'0 0.0
2017-Nov-14 11:29N 40°39' W 074°07'0 0.0
2017-Nov-14 10:59N 40°39' W 074°07'0 0.1
2017-Nov-14 10:29N 40°39' W 074°07'0 0.0
2017-Nov-14 09:59N 40°39' W 074°07'0 0.0
2017-Nov-14 09:29N 40°39' W 074°07'0 0.0
2017-Nov-14 08:59N 40°39' W 074°07'0 0.0
2017-Nov-14 08:29N 40°39' W 074°07'0 0.0
2017-Nov-14 07:59N 40°39' W 074°07'0 0.0
2017-Nov-14 07:29N 40°39' W 074°07'0 0.0
2017-Nov-14 06:59N 40°39' W 074°07'0 0.0
2017-Nov-14 06:29N 40°39' W 074°07'0 0.0
2017-Nov-14 05:59N 40°39' W 074°07'0 0.0
2017-Nov-14 05:29N 40°39' W 074°07'0 0.0
2017-Nov-14 04:59N 40°39' W 074°07'0 0.0
2017-Nov-14 04:29N 40°39' W 074°07'0 0.0
2017-Nov-14 03:59N 40°39' W 074°07'0 0.0
2017-Nov-14 03:29N 40°39' W 074°07'0 0.0
2017-Nov-14 02:59N 40°39' W 074°07'0 0.0
2017-Nov-14 02:29N 40°39' W 074°07'0 0.0
2017-Nov-14 01:59N 40°39' W 074°07'0 0.0
2017-Nov-14 01:29N 40°39' W 074°07'0 0.0
2017-Nov-14 00:59N 40°39' W 074°07'0 0.0
2017-Nov-14 00:29N 40°39' W 074°07'0 0.0
2017-Nov-13 23:53N 40°39' W 074°07'0 0.0
2017-Nov-13 23:29N 40°39' W 074°07'0 0.0
2017-Nov-13 22:59N 40°39' W 074°07'0 0.0
2017-Nov-13 22:29N 40°39' W 074°07'0 0.0
2017-Nov-13 22:00N 40°39' W 074°07'2 0.1
2017-Nov-13 01:50N 40°38' W 074°10'0 0.0
2017-Nov-13 01:26N 40°38' W 074°10'0 0.0
2017-Nov-13 00:59N 40°38' W 074°10'0 0.0
2017-Nov-13 00:29N 40°38' W 074°10'0 0.0
2017-Nov-12 23:56N 40°38' W 074°10'0 0.0
2017-Nov-12 23:29N 40°38' W 074°10'2 3.2
2017-Nov-12 23:01N 40°39' W 074°08'1 1.4
2017-Nov-12 22:31N 40°39' W 074°07'0 0.0
2017-Nov-12 22:00N 40°39' W 074°07'0 0.0
2017-Nov-12 21:31N 40°39' W 074°07'0 0.0
2017-Nov-12 21:01N 40°39' W 074°07'0 0.0
2017-Nov-12 20:30N 40°39' W 074°07'0 0.0
2017-Nov-12 20:00N 40°39' W 074°07'1 1.5
2017-Nov-12 19:30N 40°39' W 074°08'1 2.5
2017-Nov-12 19:01N 40°38' W 074°09'0 0.0
2017-Nov-12 18:28N 40°38' W 074°09'0 0.0
2017-Nov-12 17:55N 40°38' W 074°09'0 0.0
2017-Nov-12 17:28N 40°38' W 074°09'0 0.0
2017-Nov-12 16:55N 40°38' W 074°09'0 0.0
2017-Nov-12 16:28N 40°38' W 074°09'0 0.0
2017-Nov-12 15:58N 40°38' W 074°09'0 0.0
2017-Nov-12 15:25N 40°38' W 074°09'0 0.0
2017-Nov-12 14:58N 40°38' W 074°09'0 0.0
2017-Nov-12 14:28N 40°38' W 074°09'0 0.0
2017-Nov-12 13:58N 40°38' W 074°09'0 0.0
2017-Nov-12 13:28N 40°38' W 074°09'0 0.0
2017-Nov-12 12:58N 40°38' W 074°09'0 0.0
2017-Nov-12 12:22N 40°38' W 074°09'0 0.0
2017-Nov-12 11:55N 40°38' W 074°09'0 0.0
2017-Nov-12 11:28N 40°38' W 074°09'0 0.0
2017-Nov-12 10:58N 40°38' W 074°09'0 0.0
2017-Nov-12 10:28N 40°38' W 074°09'0 0.0
2017-Nov-12 09:58N 40°38' W 074°09'0 0.0
2017-Nov-12 09:28N 40°38' W 074°09'0 0.0
2017-Nov-12 08:58N 40°38' W 074°09'0 0.0
2017-Nov-12 08:25N 40°38' W 074°09'0 0.0
2017-Nov-12 07:58N 40°38' W 074°09'0 0.0
2017-Nov-12 07:28N 40°38' W 074°09'0 0.0
2017-Nov-12 06:58N 40°38' W 074°09'0 0.0
2017-Nov-12 06:28N 40°38' W 074°09'0 0.0
2017-Nov-12 06:00N 40°38' W 074°09'0 0.0
2017-Nov-12 05:30N 40°38' W 074°09'0 0.0
2017-Nov-12 05:00N 40°38' W 074°09'2 3.4
2017-Nov-12 04:30N 40°39' W 074°07'1 1.1
2017-Nov-12 03:56N 40°39' W 074°07'0 0.0
2017-Nov-12 03:29N 40°39' W 074°07'0 0.0
2017-Nov-12 02:59N 40°39' W 074°07'0 0.0
2017-Nov-12 02:29N 40°39' W 074°07'0 0.0
2017-Nov-12 02:00N 40°39' W 074°07'0 0.0
2017-Nov-12 01:30N 40°39' W 074°07'0 0.0
2017-Nov-12 01:00N 40°39' W 074°07'0 0.0
2017-Nov-12 00:29N 40°39' W 074°07'0 0.0
2017-Nov-12 00:00N 40°39' W 074°07'0 0.0
2017-Nov-11 23:30N 40°39' W 074°07'1 1.6
2017-Nov-11 23:00N 40°39' W 074°08'1 2.9
2017-Nov-11 22:30N 40°38' W 074°09'0 0.7
2017-Nov-11 22:00N 40°38' W 074°10'0 0.0
2017-Nov-11 21:30N 40°38' W 074°10'0 0.0
2017-Nov-11 21:00N 40°38' W 074°10'0 0.0
2017-Nov-11 20:30N 40°38' W 074°10'0 0.0
2017-Nov-11 19:59N 40°38' W 074°10'0 0.0
2017-Nov-11 19:30N 40°38' W 074°10'0 0.0
2017-Nov-11 19:00N 40°38' W 074°10'0 0.0
2017-Nov-11 18:30N 40°38' W 074°10'0 0.0
2017-Nov-11 18:00N 40°38' W 074°10'0 0.0
2017-Nov-11 17:30N 40°38' W 074°10'0 0.0
2017-Nov-11 17:00N 40°38' W 074°10'0 0.0
2017-Nov-11 16:30N 40°38' W 074°10'0 0.0
2017-Nov-11 16:00N 40°38' W 074°10'0 0.0
2017-Nov-11 15:30N 40°38' W 074°10'0 0.0
2017-Nov-11 15:00N 40°38' W 074°10'0 0.0
2017-Nov-11 14:30N 40°38' W 074°10'0 0.0
2017-Nov-11 14:00N 40°38' W 074°10'0 0.6
2017-Nov-11 13:30N 40°38' W 074°09'0 0.0
2017-Nov-11 13:00N 40°38' W 074°09'0 0.0
2017-Nov-11 12:28N 40°38' W 074°09'0 0.0
2017-Nov-11 12:00N 40°38' W 074°10'0 0.0
2017-Nov-11 11:29N 40°38' W 074°09'0 0.0
2017-Nov-11 11:00N 40°38' W 074°09'0 0.0
2017-Nov-11 10:30N 40°38' W 074°09'0 0.0
2017-Nov-11 10:00N 40°38' W 074°09'0 0.0
2017-Nov-11 09:30N 40°38' W 074°09'0 0.0
2017-Nov-11 09:00N 40°38' W 074°09'0 0.0
2017-Nov-11 08:30N 40°38' W 074°09'0 0.0
2017-Nov-11 08:00N 40°38' W 074°09'0 0.0
2017-Nov-11 07:29N 40°38' W 074°09'0 0.0
2017-Nov-11 07:00N 40°38' W 074°09'0 0.0
2017-Nov-11 06:30N 40°38' W 074°09'0 0.3
2017-Nov-11 06:00N 40°38' W 074°09'3 6.3
2017-Nov-11 05:30N 40°39' W 074°05'2 4.6
2017-Nov-11 05:00N 40°40' W 074°03'3 6.3
2017-Nov-11 04:30N 40°43' W 074°01'4 7.5
2017-Nov-11 04:01N 40°47' W 073°60'0 0.1
2017-Nov-11 03:29N 40°47' W 073°60'0 0.0
2017-Nov-11 02:59N 40°47' W 073°60'0 0.0
2017-Nov-11 02:29N 40°47' W 073°60'0 0.0
2017-Nov-11 01:59N 40°47' W 073°60'0 0.0
2017-Nov-11 01:29N 40°47' W 073°60'0 0.0
2017-Nov-11 00:59N 40°47' W 073°60'0 0.3
2017-Nov-11 00:29N 40°47' W 073°60'0 0.0
2017-Nov-10 23:59N 40°47' W 073°60'0 0.0
2017-Nov-10 23:29N 40°47' W 073°60'0 0.0
2017-Nov-10 22:59N 40°47' W 073°60'0 0.0
2017-Nov-10 22:29N 40°47' W 073°60'0 0.0
2017-Nov-10 21:59N 40°47' W 073°60'0 0.0
2017-Nov-10 21:29N 40°47' W 073°60'0 0.0
2017-Nov-10 20:59N 40°47' W 073°60'0 0.3
2017-Nov-10 20:29N 40°47' W 073°60'0 0.2
2017-Nov-10 19:59N 40°47' W 073°60'0 0.0
2017-Nov-10 19:29N 40°47' W 073°60'0 0.1
2017-Nov-10 18:59N 40°47' W 073°60'0 0.1
2017-Nov-10 18:20N 40°47' W 073°60'0 0.1
2017-Nov-10 17:59N 40°47' W 073°60'0 0.2
2017-Nov-10 17:29N 40°47' W 073°60'0 0.1
2017-Nov-10 16:59N 40°47' W 073°60'0 0.1
2017-Nov-10 16:31N 40°47' W 073°60'0 0.0
2017-Nov-10 16:00N 40°47' W 073°60'0 0.0
2017-Nov-10 15:31N 40°47' W 073°60'0 0.2
2017-Nov-10 15:00N 40°47' W 073°60'3 5.6
2017-Nov-10 14:31N 40°44' W 074°01'3 5.1
2017-Nov-10 14:01N 40°42' W 074°01'4 7.2
2017-Nov-10 13:30N 40°45' W 073°58'4 7.8
2017-Nov-10 13:00N 40°48' W 073°55'3 5.3
2017-Nov-10 12:30N 40°48' W 073°51'3 4.5
2017-Nov-10 11:50N 40°48' W 073°47'2 4.7
2017-Nov-10 11:30N 40°50' W 073°47'2 4.6
2017-Nov-10 11:00N 40°52' W 073°45'  

Dump ship's entire track history